Fort Severn, Canada
Current Conditions -  °F | °C
As of 9:00 PM on Thursday 18 Dec 2014 (Local Time) from CYER Reporting Station
Clear Clear  
Wind Chill: -7°   Ceiling: Unl
Heat Index:   Visibility: 9mi
Dew Point:   Wind: 7mph
Humidity: 85%   Direction: 240°WSW
Pressure: 30.14"   Gusts: NA
Location:  55.98°N, 87.65°W
Report Text: CYER 190200Z AUTO 24006KT 9SM CLR M15/M17 A3014 RMK SLP208
Loading
Personal Weather Stations






























Interactive Weather Map New forecast layout! Learn more

10-Day Weather Forecast

Advertisements
Track Severe Weather on mobile